Time,TemperatureF,DewpointF,PressureIn,WindDirection,WindDirectionDegrees,WindSpeedMPH,WindSpeedGustMPH,Humidity,HourlyPrecipIn,Conditions,Clouds,dailyrainin,SoftwareType,DateUTC
2013-03-04 00:00:00,33.0,31.5,29.60,SSE,158,0.0,7.0,94,0.00,,,0.00,Weather View 32 v70,2013-03-04 05:00:00,
2013-03-04 00:05:00,33.0,31.5,29.60,WSW,248,0.0,7.0,94,0.00,,,0.00,Weather View 32 v70,2013-03-04 05:05:00,
2013-03-04 00:10:00,33.0,31.7,29.60,WSW,248,0.0,7.0,95,0.00,,,0.00,Weather View 32 v70,2013-03-04 05:10:00,
2013-03-04 00:15:00,33.0,31.7,29.60,WNW,292,0.0,7.0,95,0.00,,,0.00,Weather View 32 v70,2013-03-04 05:15:00,
2013-03-04 00:20:00,33.0,32.2,29.60,NW,315,0.0,7.0,97,0.00,,,0.00,Weather View 32 v70,2013-03-04 05:20:00,
2013-03-04 00:25:00,33.0,31.7,29.60,NNE,22,0.0,7.0,95,0.00,,,0.00,Weather View 32 v70,2013-03-04 05:25:00,
2013-03-04 00:30:00,33.0,28.7,29.60,SSW,202,0.0,7.0,84,0.00,,,0.00,Weather View 32 v70,2013-03-04 05:30:00,
2013-03-04 00:35:00,33.0,28.7,29.60,SW,225,0.0,7.0,84,0.00,,,0.00,Weather View 32 v70,2013-03-04 05:35:00,
2013-03-04 00:40:00,33.0,31.5,29.60,WSW,248,0.0,7.0,94,0.00,,,0.00,Weather View 32 v70,2013-03-04 05:40:00,
2013-03-04 00:45:00,33.0,30.4,29.60,NW,315,0.0,7.0,90,0.00,,,0.00,Weather View 32 v70,2013-03-04 05:45:00,
2013-03-04 00:50:00,33.0,28.1,29.60,WSW,248,0.0,7.0,82,0.00,,,0.00,Weather View 32 v70,2013-03-04 05:50:00,
2013-03-04 00:55:00,33.0,28.1,29.60,North,0,0.0,4.0,82,0.00,,,0.00,Weather View 32 v70,2013-03-04 05:55:00,
2013-03-04 01:00:00,33.0,28.1,29.60,WNW,292,0.0,4.0,82,0.00,,,0.00,Weather View 32 v70,2013-03-04 06:00:00,
2013-03-04 01:05:00,33.0,27.8,29.60,West,270,0.0,4.0,81,0.00,,,0.00,Weather View 32 v70,2013-03-04 06:05:00,
2013-03-04 01:10:00,33.0,27.8,29.60,WSW,248,0.0,4.0,81,0.00,,,0.00,Weather View 32 v70,2013-03-04 06:10:00,
2013-03-04 01:15:00,33.0,27.5,29.60,WNW,292,0.0,5.0,80,0.00,,,0.00,Weather View 32 v70,2013-03-04 06:15:00,
2013-03-04 01:20:00,33.0,27.2,29.60,WNW,292,0.0,5.0,79,0.00,,,0.00,Weather View 32 v70,2013-03-04 06:20:00,
2013-03-04 01:25:00,33.0,27.2,29.60,NW,315,0.0,5.0,79,0.00,,,0.00,Weather View 32 v70,2013-03-04 06:25:00,
2013-03-04 01:30:00,33.0,26.9,29.60,SW,225,0.0,5.0,78,0.00,,,0.00,Weather View 32 v70,2013-03-04 06:30:00,
2013-03-04 01:35:00,34.0,27.5,29.60,WNW,292,0.0,5.0,77,0.00,,,0.00,Weather View 32 v70,2013-03-04 06:35:00,
2013-03-04 01:40:00,34.0,27.5,29.60,West,270,0.0,5.0,77,0.00,,,0.00,Weather View 32 v70,2013-03-04 06:40:00,
2013-03-04 01:45:00,34.0,27.5,29.60,WNW,292,0.0,5.0,77,0.00,,,0.00,Weather View 32 v70,2013-03-04 06:45:00,
2013-03-04 01:50:00,34.0,27.2,29.60,SSW,202,0.0,5.0,76,0.00,,,0.00,Weather View 32 v70,2013-03-04 06:50:00,
2013-03-04 01:55:00,34.0,27.2,29.60,WSW,248,0.0,5.0,76,0.00,,,0.00,Weather View 32 v70,2013-03-04 06:55:00,
2013-03-04 02:00:00,34.0,27.2,29.60,South,180,0.0,7.0,76,0.00,,,0.00,Weather View 32 v70,2013-03-04 07:00:00,
2013-03-04 02:05:00,34.0,27.2,29.60,NW,315,0.0,7.0,76,0.00,,,0.00,Weather View 32 v70,2013-03-04 07:05:00,
2013-03-04 02:10:00,34.0,26.9,29.60,West,270,0.0,7.0,75,0.00,,,0.00,Weather View 32 v70,2013-03-04 07:10:00,
2013-03-04 02:15:00,34.0,26.9,29.60,South,180,0.0,7.0,75,0.00,,,0.00,Weather View 32 v70,2013-03-04 07:15:00,
2013-03-04 02:20:00,34.0,26.9,29.60,WSW,248,0.0,7.0,75,0.00,,,0.00,Weather View 32 v70,2013-03-04 07:20:00,
2013-03-04 02:25:00,33.0,25.9,29.60,WNW,292,0.0,7.0,75,0.00,,,0.00,Weather View 32 v70,2013-03-04 07:25:00,
2013-03-04 02:30:00,33.0,26.6,29.60,ESE,112,0.0,7.0,77,0.00,,,0.00,Weather View 32 v70,2013-03-04 07:30:00,
2013-03-04 02:35:00,33.0,28.4,29.60,WNW,292,0.0,7.0,83,0.00,,,0.00,Weather View 32 v70,2013-03-04 07:35:00,
2013-03-04 02:40:00,33.0,27.8,29.60,WSW,248,0.0,7.0,81,0.00,,,0.00,Weather View 32 v70,2013-03-04 07:40:00,
2013-03-04 02:45:00,33.0,27.2,29.60,WNW,292,0.0,7.0,79,0.00,,,0.00,Weather View 32 v70,2013-03-04 07:45:00,
2013-03-04 02:50:00,33.0,25.6,29.60,West,270,3.0,7.0,74,0.00,,,0.00,Weather View 32 v70,2013-03-04 07:50:00,
2013-03-04 02:55:00,33.0,25.6,29.60,South,180,0.0,7.0,74,0.00,,,0.00,Weather View 32 v70,2013-03-04 07:55:00,
2013-03-04 03:00:00,33.0,25.6,29.60,West,270,0.0,4.0,74,0.00,,,0.00,Weather View 32 v70,2013-03-04 08:00:00,
2013-03-04 03:05:00,33.0,25.6,29.60,South,180,0.0,4.0,74,0.00,,,0.00,Weather View 32 v70,2013-03-04 08:05:00,
2013-03-04 03:10:00,33.0,25.3,29.60,SW,225,0.0,4.0,73,0.00,,,0.00,Weather View 32 v70,2013-03-04 08:10:00,
2013-03-04 03:15:00,33.0,25.3,29.60,SW,225,0.0,7.0,73,0.00,,,0.00,Weather View 32 v70,2013-03-04 08:15:00,
2013-03-04 03:20:00,33.0,25.3,29.60,West,270,0.0,7.0,73,0.00,,,0.00,Weather View 32 v70,2013-03-04 08:20:00,
2013-03-04 03:25:00,33.0,25.3,29.60,SSW,202,0.0,7.0,73,0.00,,,0.00,Weather View 32 v70,2013-03-04 08:25:00,
2013-03-04 03:31:00,33.0,25.0,29.61,WNW,292,0.0,7.0,72,0.00,,,0.00,Weather View 32 v70,2013-03-04 08:31:00,
2013-03-04 03:36:00,33.0,25.0,29.60,West,270,0.0,7.0,72,0.00,,,0.00,Weather View 32 v70,2013-03-04 08:36:00,
2013-03-04 03:41:00,33.0,25.0,29.61,SW,225,0.0,7.0,72,0.00,,,0.00,Weather View 32 v70,2013-03-04 08:41:00,
2013-03-04 03:46:00,33.0,24.6,29.61,WNW,292,2.0,7.0,71,0.00,,,0.00,Weather View 32 v70,2013-03-04 08:46:00,
2013-03-04 03:51:00,32.0,26.2,29.61,WNW,292,3.0,7.0,79,0.00,,,0.00,Weather View 32 v70,2013-03-04 08:51:00,
2013-03-04 03:56:00,32.0,26.8,29.61,West,270,0.0,7.0,81,0.00,,,0.00,Weather View 32 v70,2013-03-04 08:56:00,
2013-03-04 04:01:00,32.0,26.2,29.62,WSW,248,0.0,9.0,79,0.00,,,0.00,Weather View 32 v70,2013-03-04 09:01:00,
2013-03-04 04:06:00,32.0,26.2,29.62,West,270,2.0,9.0,79,0.00,,,0.00,Weather View 32 v70,2013-03-04 09:06:00,
2013-03-04 04:11:00,32.0,26.2,29.62,South,180,2.0,9.0,79,0.00,,,0.00,Weather View 32 v70,2013-03-04 09:11:00,
2013-03-04 04:16:00,32.0,25.6,29.62,SSW,202,0.0,9.0,77,0.00,,,0.00,Weather View 32 v70,2013-03-04 09:16:00,
2013-03-04 04:21:00,32.0,24.6,29.62,NNW,338,1.0,9.0,74,0.00,,,0.00,Weather View 32 v70,2013-03-04 09:21:00,
2013-03-04 04:26:00,31.0,23.0,29.62,WNW,292,1.0,9.0,72,0.00,,,0.00,Weather View 32 v70,2013-03-04 09:26:00,
2013-03-04 04:31:00,31.0,23.7,29.62,WSW,248,2.0,9.0,74,0.00,,,0.00,Weather View 32 v70,2013-03-04 09:31:00,
2013-03-04 04:36:00,31.0,24.6,29.62,WNW,292,0.0,9.0,77,0.00,,,0.00,Weather View 32 v70,2013-03-04 09:36:00,
2013-03-04 04:41:00,31.0,25.3,29.62,WNW,292,3.0,9.0,79,0.00,,,0.00,Weather View 32 v70,2013-03-04 09:41:00,
2013-03-04 04:46:00,31.0,23.4,29.62,WSW,248,5.0,9.0,73,0.00,,,0.00,Weather View 32 v70,2013-03-04 09:46:00,
2013-03-04 04:51:00,31.0,24.9,29.62,West,270,2.0,9.0,78,0.00,,,0.00,Weather View 32 v70,2013-03-04 09:51:00,
2013-03-04 04:56:00,31.0,26.1,29.62,NNW,338,0.0,9.0,82,0.00,,,0.00,Weather View 32 v70,2013-03-04 09:56:00,
2013-03-04 05:01:00,30.0,25.5,29.62,SW,225,7.0,9.0,83,0.00,,,0.00,Weather View 32 v70,2013-03-04 10:01:00,
2013-03-04 05:06:00,30.0,25.2,29.62,NW,315,1.0,10.0,82,0.00,,,0.00,Weather View 32 v70,2013-03-04 10:06:00,
2013-03-04 05:11:00,30.0,24.6,29.62,West,270,0.0,10.0,80,0.00,,,0.00,Weather View 32 v70,2013-03-04 10:11:00,
2013-03-04 05:16:00,30.0,24.6,29.62,SSE,158,0.0,10.0,80,0.00,,,0.00,Weather View 32 v70,2013-03-04 10:16:00,
2013-03-04 05:21:00,30.0,24.9,29.62,West,270,0.0,10.0,81,0.00,,,0.00,Weather View 32 v70,2013-03-04 10:21:00,
2013-03-04 05:26:00,30.0,21.4,29.62,WSW,248,0.0,12.0,70,0.00,,,0.00,Weather View 32 v70,2013-03-04 10:26:00,
2013-03-04 05:31:00,30.0,21.4,29.62,WSW,248,2.0,12.0,70,0.00,,,0.00,Weather View 32 v70,2013-03-04 10:31:00,
2013-03-04 05:36:00,30.0,21.7,29.62,WSW,248,0.0,12.0,71,0.00,,,0.00,Weather View 32 v70,2013-03-04 10:36:00,
2013-03-04 05:41:00,30.0,21.7,29.62,NW,315,0.0,12.0,71,0.00,,,0.00,Weather View 32 v70,2013-03-04 10:41:00,
2013-03-04 05:46:00,30.0,21.7,29.62,WNW,292,3.0,12.0,71,0.00,,,0.00,Weather View 32 v70,2013-03-04 10:46:00,
2013-03-04 05:51:00,30.0,22.1,29.63,SW,225,1.0,12.0,72,0.00,,,0.00,Weather View 32 v70,2013-03-04 10:51:00,
2013-03-04 05:56:00,30.0,21.7,29.62,SSW,202,1.0,12.0,71,0.00,,,0.00,Weather View 32 v70,2013-03-04 10:56:00,
2013-03-04 06:01:00,30.0,21.7,29.63,West,270,2.0,12.0,71,0.00,,,0.00,Weather View 32 v70,2013-03-04 11:01:00,
2013-03-04 06:06:00,30.0,21.7,29.63,SW,225,3.0,12.0,71,0.00,,,0.00,Weather View 32 v70,2013-03-04 11:06:00,
2013-03-04 06:11:00,30.0,21.7,29.63,West,270,5.0,12.0,71,0.00,,,0.00,Weather View 32 v70,2013-03-04 11:11:00,
2013-03-04 06:16:00,30.0,21.7,29.63,West,270,0.0,12.0,71,0.00,,,0.00,Weather View 32 v70,2013-03-04 11:16:00,
2013-03-04 06:21:00,30.0,21.4,29.63,West,270,3.0,12.0,70,0.00,,,0.00,Weather View 32 v70,2013-03-04 11:21:00,
2013-03-04 06:26:00,30.0,21.7,29.63,SSW,202,0.0,10.0,71,0.00,,,0.00,Weather View 32 v70,2013-03-04 11:26:00,
2013-03-04 06:31:00,30.0,21.4,29.63,WNW,292,0.0,10.0,70,0.00,,,0.00,Weather View 32 v70,2013-03-04 11:31:00,
2013-03-04 06:36:00,30.0,21.4,29.63,NNW,338,0.0,10.0,70,0.00,,,0.00,Weather View 32 v70,2013-03-04 11:36:00,
2013-03-04 06:41:00,30.0,21.4,29.63,SW,225,3.0,10.0,70,0.00,,,0.00,Weather View 32 v70,2013-03-04 11:41:00,
2013-03-04 06:46:00,30.0,21.4,29.63,SW,225,0.0,10.0,70,0.00,,,0.00,Weather View 32 v70,2013-03-04 11:46:00,
2013-03-04 06:51:00,30.0,21.4,29.64,West,270,0.0,10.0,70,0.00,,,0.00,Weather View 32 v70,2013-03-04 11:51:00,
2013-03-04 06:56:00,30.0,21.4,29.64,SSW,202,0.0,9.0,70,0.00,,,0.00,Weather View 32 v70,2013-03-04 11:56:00,
2013-03-04 07:01:00,30.0,21.4,29.64,WNW,292,3.0,9.0,70,0.00,,,0.00,Weather View 32 v70,2013-03-04 12:01:00,
2013-03-04 07:06:00,30.0,21.1,29.64,South,180,5.0,9.0,69,0.00,,,0.00,Weather View 32 v70,2013-03-04 12:06:00,
2013-03-04 07:11:00,30.0,21.1,29.64,WNW,292,2.0,10.0,69,0.00,,,0.00,Weather View 32 v70,2013-03-04 12:11:00,
2013-03-04 07:16:00,30.0,23.7,29.65,WNW,292,2.0,10.0,77,0.00,,,0.00,Weather View 32 v70,2013-03-04 12:16:00,
2013-03-04 07:21:00,31.0,24.3,29.64,West,270,4.0,10.0,76,0.00,,,0.00,Weather View 32 v70,2013-03-04 12:21:00,
2013-03-04 07:26:00,31.0,21.7,29.65,South,180,0.0,10.0,68,0.00,,,0.00,Weather View 32 v70,2013-03-04 12:26:00,
2013-03-04 07:31:00,32.0,25.9,29.65,North,0,2.0,10.0,78,0.00,,,0.00,Weather View 32 v70,2013-03-04 12:31:00,
2013-03-04 07:36:00,32.0,25.0,29.65,West,270,2.0,10.0,75,0.00,,,0.00,Weather View 32 v70,2013-03-04 12:36:00,
2013-03-04 07:41:00,33.0,25.3,29.65,WSW,248,0.0,11.0,73,0.00,,,0.00,Weather View 32 v70,2013-03-04 12:41:00,
2013-03-04 07:46:00,33.0,22.1,29.65,West,270,3.0,11.0,64,0.00,,,0.00,Weather View 32 v70,2013-03-04 12:46:00,
2013-03-04 07:51:00,33.0,21.4,29.64,SW,225,3.0,11.0,62,0.00,,,0.00,Weather View 32 v70,2013-03-04 12:51:00,
2013-03-04 07:56:00,33.0,21.8,29.64,NW,315,3.0,11.0,63,0.00,,,0.00,Weather View 32 v70,2013-03-04 12:56:00,
2013-03-04 08:01:00,33.0,21.8,29.64,NNW,338,3.0,11.0,63,0.00,,,0.00,Weather View 32 v70,2013-03-04 13:01:00,
2013-03-04 08:06:00,33.0,24.6,29.64,WNW,292,0.0,11.0,71,0.00,,,0.00,Weather View 32 v70,2013-03-04 13:06:00,
2013-03-04 08:11:00,34.0,24.5,29.64,ESE,112,5.0,11.0,68,0.00,,,0.00,Weather View 32 v70,2013-03-04 13:11:00,
2013-03-04 08:16:00,34.0,23.1,29.64,NNW,338,8.0,11.0,64,0.00,,,0.00,Weather View 32 v70,2013-03-04 13:16:00,
2013-03-04 08:21:00,34.0,24.5,29.64,NNW,338,0.0,13.0,68,0.00,,,0.00,Weather View 32 v70,2013-03-04 13:21:00,
2013-03-04 08:26:00,35.0,24.0,29.64,WSW,248,1.0,13.0,64,0.00,,,0.00,Weather View 32 v70,2013-03-04 13:26:00,
2013-03-04 08:31:00,35.0,22.9,29.64,West,270,3.0,13.0,61,0.00,,,0.00,Weather View 32 v70,2013-03-04 13:31:00,
2013-03-04 08:36:00,36.0,23.4,29.64,WNW,292,2.0,13.0,60,0.00,,,0.00,Weather View 32 v70,2013-03-04 13:36:00,
2013-03-04 08:41:00,36.0,23.0,29.63,West,270,1.0,13.0,59,0.00,,,0.00,Weather View 32 v70,2013-03-04 13:41:00,
2013-03-04 08:46:00,37.0,24.0,29.64,West,270,2.0,13.0,59,0.00,,,0.00,Weather View 32 v70,2013-03-04 13:46:00,
2013-03-04 08:51:00,37.0,23.2,29.64,NNW,338,0.0,13.0,57,0.00,,,0.00,Weather View 32 v70,2013-03-04 13:51:00,
2013-03-04 08:56:00,37.0,25.6,29.63,NNW,338,10.0,13.0,63,0.00,,,0.00,Weather View 32 v70,2013-03-04 13:56:00,
2013-03-04 09:01:00,37.0,23.2,29.63,West,270,2.0,13.0,57,0.00,,,0.00,Weather View 32 v70,2013-03-04 14:01:00,
2013-03-04 09:06:00,37.0,22.7,29.63,West,270,4.0,13.0,56,0.00,,,0.00,Weather View 32 v70,2013-03-04 14:06:00,
2013-03-04 09:11:00,38.0,23.2,29.63,WNW,292,2.0,13.0,55,0.00,,,0.00,Weather View 32 v70,2013-03-04 14:11:00,
2013-03-04 09:16:00,38.0,26.1,29.63,NNE,22,2.0,13.0,62,0.00,,,0.00,Weather View 32 v70,2013-03-04 14:16:00,
2013-03-04 09:21:00,38.0,25.7,29.63,WSW,248,2.0,12.0,61,0.00,,,0.00,Weather View 32 v70,2013-03-04 14:21:00,
2013-03-04 09:26:00,38.0,25.3,29.62,North,0,4.0,12.0,60,0.00,,,0.00,Weather View 32 v70,2013-03-04 14:26:00,
2013-03-04 09:31:00,38.0,25.7,29.62,NW,315,1.0,12.0,61,0.00,,,0.00,Weather View 32 v70,2013-03-04 14:31:00,
2013-03-04 09:36:00,38.0,25.3,29.62,NNW,338,3.0,12.0,60,0.00,,,0.00,Weather View 32 v70,2013-03-04 14:36:00,
2013-03-04 09:41:00,39.0,25.9,29.62,SW,225,2.0,12.0,59,0.00,,,0.00,Weather View 32 v70,2013-03-04 14:41:00,
2013-03-04 09:46:00,39.0,24.6,29.62,WNW,292,6.0,12.0,56,0.00,,,0.00,Weather View 32 v70,2013-03-04 14:46:00,
2013-03-04 09:51:00,39.0,25.5,29.62,WNW,292,3.0,17.0,58,0.00,,,0.00,Weather View 32 v70,2013-03-04 14:51:00,
2013-03-04 09:56:00,39.0,25.5,29.62,West,270,1.0,17.0,58,0.00,,,0.00,Weather View 32 v70,2013-03-04 14:56:00,
2013-03-04 10:01:00,39.0,25.0,29.62,SW,225,4.0,17.0,57,0.00,,,0.00,Weather View 32 v70,2013-03-04 15:01:00,
2013-03-04 10:06:00,39.0,25.0,29.62,SW,225,2.0,17.0,57,0.00,,,0.00,Weather View 32 v70,2013-03-04 15:06:00,
2013-03-04 10:11:00,40.0,26.4,29.62,NNE,22,3.0,17.0,58,0.00,,,0.00,Weather View 32 v70,2013-03-04 15:11:00,
2013-03-04 10:16:00,40.0,25.1,29.61,WSW,248,2.0,17.0,55,0.00,,,0.00,Weather View 32 v70,2013-03-04 15:16:00,
2013-03-04 10:21:00,40.0,26.0,29.61,NE,45,2.0,17.0,57,0.00,,,0.00,Weather View 32 v70,2013-03-04 15:21:00,
2013-03-04 10:26:00,41.0,26.5,29.61,West,270,3.0,17.0,56,0.00,,,0.00,Weather View 32 v70,2013-03-04 15:26:00,
2013-03-04 10:31:00,41.0,26.0,29.62,WNW,292,6.0,17.0,55,0.00,,,0.00,Weather View 32 v70,2013-03-04 15:31:00,
2013-03-04 10:36:00,41.0,26.0,29.61,WNW,292,4.0,17.0,55,0.00,,,0.00,Weather View 32 v70,2013-03-04 15:36:00,
2013-03-04 10:41:00,41.0,26.5,29.61,NNW,338,4.0,17.0,56,0.00,,,0.00,Weather View 32 v70,2013-03-04 15:41:00,
2013-03-04 10:46:00,41.0,25.6,29.61,SSW,202,10.0,17.0,54,0.00,,,0.00,Weather View 32 v70,2013-03-04 15:46:00,
2013-03-04 10:51:00,41.0,26.0,29.61,North,0,4.0,13.0,55,0.00,,,0.00,Weather View 32 v70,2013-03-04 15:51:00,
2013-03-04 10:56:00,41.0,25.2,29.61,West,270,5.0,13.0,53,0.00,,,0.00,Weather View 32 v70,2013-03-04 15:56:00,
2013-03-04 11:01:00,41.0,24.2,29.61,WSW,248,1.0,15.0,51,0.00,,,0.00,Weather View 32 v70,2013-03-04 16:01:00,
2013-03-04 11:06:00,42.0,25.2,29.61,South,180,0.0,15.0,51,0.00,,,0.00,Weather View 32 v70,2013-03-04 16:06:00,
2013-03-04 11:11:00,42.0,25.6,29.61,NW,315,4.0,19.0,52,0.00,,,0.00,Weather View 32 v70,2013-03-04 16:11:00,
2013-03-04 11:16:00,42.0,24.2,29.61,SW,225,4.0,19.0,49,0.00,,,0.00,Weather View 32 v70,2013-03-04 16:16:00,
2013-03-04 11:21:00,42.0,25.2,29.60,North,0,6.0,19.0,51,0.00,,,0.00,Weather View 32 v70,2013-03-04 16:21:00,
2013-03-04 11:26:00,42.0,25.2,29.60,West,270,2.0,19.0,51,0.00,,,0.00,Weather View 32 v70,2013-03-04 16:26:00,
2013-03-04 11:31:00,42.0,26.1,29.60,WNW,292,1.0,19.0,53,0.00,,,0.00,Weather View 32 v70,2013-03-04 16:31:00,
2013-03-04 11:36:00,42.0,25.6,29.60,SW,225,2.0,19.0,52,0.00,,,0.00,Weather View 32 v70,2013-03-04 16:36:00,
2013-03-04 11:41:00,42.0,25.2,29.60,WNW,292,2.0,19.0,51,0.00,,,0.00,Weather View 32 v70,2013-03-04 16:41:00,
2013-03-04 11:46:00,42.0,25.6,29.60,West,270,0.0,19.0,52,0.00,,,0.00,Weather View 32 v70,2013-03-04 16:46:00,
2013-03-04 11:51:00,41.0,25.2,29.60,WSW,248,6.0,19.0,53,0.00,,,0.00,Weather View 32 v70,2013-03-04 16:51:00,
2013-03-04 11:56:00,41.0,25.6,29.60,NNW,338,4.0,19.0,54,0.00,,,0.00,Weather View 32 v70,2013-03-04 16:56:00,
2013-03-04 12:01:00,41.0,25.6,29.60,SW,225,4.0,19.0,54,0.00,,,0.00,Weather View 32 v70,2013-03-04 17:01:00,
2013-03-04 12:06:00,41.0,25.2,29.60,WNW,292,5.0,19.0,53,0.00,,,0.00,Weather View 32 v70,2013-03-04 17:06:00,
2013-03-04 12:11:00,41.0,22.8,29.60,SW,225,2.0,12.0,48,0.00,,,0.00,Weather View 32 v70,2013-03-04 17:11:00,
2013-03-04 12:16:00,41.0,22.3,29.60,WSW,248,3.0,12.0,47,0.00,,,0.00,Weather View 32 v70,2013-03-04 17:16:00,
2013-03-04 12:21:00,42.0,23.7,29.59,WNW,292,2.0,12.0,48,0.00,,,0.00,Weather View 32 v70,2013-03-04 17:21:00,
2013-03-04 12:26:00,42.0,23.2,29.59,WNW,292,4.0,16.0,47,0.00,,,0.00,Weather View 32 v70,2013-03-04 17:26:00,
2013-03-04 12:31:00,42.0,22.7,29.59,WSW,248,2.0,16.0,46,0.00,,,0.00,Weather View 32 v70,2013-03-04 17:31:00,
2013-03-04 12:36:00,42.0,22.7,29.59,NW,315,2.0,16.0,46,0.00,,,0.00,Weather View 32 v70,2013-03-04 17:36:00,
2013-03-04 12:42:00,42.0,22.7,29.59,West,270,3.0,16.0,46,0.00,,,0.00,Weather View 32 v70,2013-03-04 17:42:00,
2013-03-04 12:47:00,42.0,25.6,29.59,SW,225,4.0,16.0,52,0.00,,,0.00,Weather View 32 v70,2013-03-04 17:47:00,
2013-03-04 12:52:00,42.0,25.6,29.59,West,270,3.0,16.0,52,0.00,,,0.00,Weather View 32 v70,2013-03-04 17:52:00,
2013-03-04 12:57:00,42.0,25.6,29.58,West,270,3.0,16.0,52,0.00,,,0.00,Weather View 32 v70,2013-03-04 17:57:00,
2013-03-04 13:02:00,41.0,22.3,29.58,WSW,248,7.0,16.0,47,0.00,,,0.00,Weather View 32 v70,2013-03-04 18:02:00,
2013-03-04 13:07:00,41.0,23.8,29.58,SE,135,3.0,16.0,50,0.00,,,0.00,Weather View 32 v70,2013-03-04 18:07:00,
2013-03-04 13:12:00,41.0,23.8,29.58,NW,315,0.0,16.0,50,0.00,,,0.00,Weather View 32 v70,2013-03-04 18:12:00,
2013-03-04 13:17:00,41.0,25.2,29.58,South,180,4.0,16.0,53,0.00,,,0.00,Weather View 32 v70,2013-03-04 18:17:00,
2013-03-04 13:22:00,41.0,24.2,29.58,South,180,6.0,16.0,51,0.00,,,0.00,Weather View 32 v70,2013-03-04 18:22:00,
2013-03-04 13:27:00,41.0,25.2,29.58,North,0,3.0,16.0,53,0.00,,,0.00,Weather View 32 v70,2013-03-04 18:27:00,
2013-03-04 13:29:00,41.0,23.8,29.58,SW,225,3.0,16.0,50,0.00,,,0.00,Weather View 32 v70,2013-03-04 18:29:00,
2013-03-04 13:34:00,42.0,24.7,29.58,NNW,338,6.0,16.0,50,0.00,,,0.00,Weather View 32 v70,2013-03-04 18:34:00,
2013-03-04 13:39:00,42.0,23.2,29.58,WSW,248,1.0,16.0,47,0.00,,,0.00,Weather View 32 v70,2013-03-04 18:39:00,
2013-03-04 13:44:00,42.0,23.2,29.58,NW,315,4.0,16.0,47,0.00,,,0.00,Weather View 32 v70,2013-03-04 18:44:00,
2013-03-04 13:49:00,42.0,25.6,29.58,NNW,338,6.0,16.0,52,0.00,,,0.00,Weather View 32 v70,2013-03-04 18:49:00,
2013-03-04 13:54:00,42.0,25.6,29.58,WSW,248,3.0,16.0,52,0.00,,,0.00,Weather View 32 v70,2013-03-04 18:54:00,
2013-03-04 13:59:00,42.0,22.7,29.58,NW,315,1.0,16.0,46,0.00,,,0.00,Weather View 32 v70,2013-03-04 18:59:00,
2013-03-04 14:04:00,42.0,23.7,29.58,West,270,4.0,16.0,48,0.00,,,0.00,Weather View 32 v70,2013-03-04 19:04:00,
2013-03-04 14:09:00,42.0,26.5,29.58,NNW,338,3.0,16.0,54,0.00,,,0.00,Weather View 32 v70,2013-03-04 19:09:00,
2013-03-04 14:14:00,41.0,25.6,29.59,SW,225,0.0,16.0,54,0.00,,,0.00,Weather View 32 v70,2013-03-04 19:14:00,
2013-03-04 14:19:00,41.0,25.2,29.58,NNW,338,1.0,16.0,53,0.00,,,0.00,Weather View 32 v70,2013-03-04 19:19:00,
2013-03-04 14:24:00,42.0,24.7,29.58,WNW,292,2.0,16.0,50,0.00,,,0.00,Weather View 32 v70,2013-03-04 19:24:00,
2013-03-04 14:29:00,42.0,26.5,29.58,West,270,0.0,13.0,54,0.00,,,0.00,Weather View 32 v70,2013-03-04 19:29:00,
2013-03-04 14:34:00,41.0,25.2,29.58,SSW,202,2.0,13.0,53,0.00,,,0.00,Weather View 32 v70,2013-03-04 19:34:00,
2013-03-04 14:39:00,42.0,26.5,29.58,WNW,292,3.0,13.0,54,0.00,,,0.00,Weather View 32 v70,2013-03-04 19:39:00,
2013-03-04 14:44:00,42.0,26.5,29.58,NW,315,3.0,13.0,54,0.00,,,0.00,Weather View 32 v70,2013-03-04 19:44:00,
2013-03-04 14:49:00,42.0,26.1,29.58,WNW,292,2.0,13.0,53,0.00,,,0.00,Weather View 32 v70,2013-03-04 19:49:00,
2013-03-04 14:54:00,42.0,26.1,29.58,WNW,292,5.0,11.0,53,0.00,,,0.00,Weather View 32 v70,2013-03-04 19:54:00,
2013-03-04 14:59:00,42.0,23.7,29.58,NNW,338,2.0,14.0,48,0.00,,,0.00,Weather View 32 v70,2013-03-04 19:59:00,
2013-03-04 15:04:00,43.0,27.5,29.58,SW,225,2.0,14.0,54,0.00,,,0.00,Weather View 32 v70,2013-03-04 20:04:00,
2013-03-04 15:09:00,44.0,25.0,29.58,West,270,3.0,14.0,47,0.00,,,0.00,Weather View 32 v70,2013-03-04 20:09:00,
2013-03-04 15:14:00,44.0,25.0,29.59,WNW,292,5.0,14.0,47,0.00,,,0.00,Weather View 32 v70,2013-03-04 20:14:00,
2013-03-04 15:20:00,44.0,26.0,29.58,WSW,248,2.0,14.0,49,0.00,,,0.00,Weather View 32 v70,2013-03-04 20:20:00,
2013-03-04 15:25:00,44.0,26.0,29.58,SW,225,4.0,14.0,49,0.00,,,0.00,Weather View 32 v70,2013-03-04 20:25:00,
2013-03-04 15:30:00,43.0,24.6,29.58,West,270,4.0,14.0,48,0.00,,,0.00,Weather View 32 v70,2013-03-04 20:30:00,
2013-03-04 15:34:00,43.0,26.1,29.58,South,180,0.0,14.0,51,0.00,,,0.00,Weather View 32 v70,2013-03-04 20:34:00,
2013-03-04 15:39:00,43.0,26.6,29.59,WNW,292,4.0,14.0,52,0.00,,,0.00,Weather View 32 v70,2013-03-04 20:39:00,
2013-03-04 15:45:00,43.0,26.6,29.58,West,270,2.0,14.0,52,0.00,,,0.00,Weather View 32 v70,2013-03-04 20:45:00,
2013-03-04 15:50:00,43.0,27.5,29.58,WSW,248,3.0,14.0,54,0.00,,,0.00,Weather View 32 v70,2013-03-04 20:50:00,
2013-03-04 15:55:00,42.0,26.1,29.58,SSW,202,5.0,14.0,53,0.00,,,0.00,Weather View 32 v70,2013-03-04 20:55:00,
2013-03-04 16:00:00,42.0,26.5,29.58,West,270,2.0,12.0,54,0.00,,,0.00,Weather View 32 v70,2013-03-04 21:00:00,
2013-03-04 16:05:00,42.0,26.5,29.59,SW,225,4.0,12.0,54,0.00,,,0.00,Weather View 32 v70,2013-03-04 21:05:00,
2013-03-04 16:10:00,43.0,27.9,29.59,SW,225,4.0,12.0,55,0.00,,,0.00,Weather View 32 v70,2013-03-04 21:10:00,
2013-03-04 16:15:00,43.0,27.0,29.59,SW,225,2.0,12.0,53,0.00,,,0.00,Weather View 32 v70,2013-03-04 21:15:00,
2013-03-04 16:20:00,43.0,27.9,29.59,West,270,2.0,12.0,55,0.00,,,0.00,Weather View 32 v70,2013-03-04 21:20:00,
2013-03-04 16:25:00,42.0,27.0,29.59,West,270,6.0,12.0,55,0.00,,,0.00,Weather View 32 v70,2013-03-04 21:25:00,
2013-03-04 16:30:00,42.0,27.0,29.59,WNW,292,0.0,12.0,55,0.00,,,0.00,Weather View 32 v70,2013-03-04 21:30:00,
2013-03-04 16:35:00,42.0,27.4,29.59,WNW,292,9.0,10.0,56,0.00,,,0.00,Weather View 32 v70,2013-03-04 21:35:00,
2013-03-04 16:40:00,41.0,27.3,29.60,WNW,292,2.0,13.0,58,0.00,,,0.00,Weather View 32 v70,2013-03-04 21:40:00,
2013-03-04 16:45:00,41.0,28.2,29.60,West,270,0.0,13.0,60,0.00,,,0.00,Weather View 32 v70,2013-03-04 21:45:00,
2013-03-04 16:50:00,41.0,29.4,29.60,SSW,202,0.0,13.0,63,0.00,,,0.00,Weather View 32 v70,2013-03-04 21:50:00,
2013-03-04 16:55:00,41.0,29.0,29.60,NW,315,3.0,13.0,62,0.00,,,0.00,Weather View 32 v70,2013-03-04 21:55:00,
2013-03-04 17:00:00,40.0,24.2,29.60,WSW,248,3.0,13.0,53,0.00,,,0.00,Weather View 32 v70,2013-03-04 22:00:00,
2013-03-04 17:05:00,40.0,24.7,29.61,NW,315,4.0,13.0,54,0.00,,,0.00,Weather View 32 v70,2013-03-04 22:05:00,
2013-03-04 17:10:00,40.0,28.4,29.61,West,270,0.0,13.0,63,0.00,,,0.00,Weather View 32 v70,2013-03-04 22:10:00,
2013-03-04 17:15:00,40.0,27.2,29.61,NNW,338,2.0,13.0,60,0.00,,,0.00,Weather View 32 v70,2013-03-04 22:15:00,
2013-03-04 17:20:00,40.0,28.8,29.62,South,180,2.0,13.0,64,0.00,,,0.00,Weather View 32 v70,2013-03-04 22:20:00,
2013-03-04 17:25:00,40.0,28.4,29.62,West,270,2.0,13.0,63,0.00,,,0.00,Weather View 32 v70,2013-03-04 22:25:00,
2013-03-04 17:30:00,39.0,26.7,29.62,SW,225,5.0,13.0,61,0.00,,,0.00,Weather View 32 v70,2013-03-04 22:30:00,
2013-03-04 17:35:00,39.0,23.7,29.62,WSW,248,0.0,13.0,54,0.00,,,0.00,Weather View 32 v70,2013-03-04 22:35:00,
2013-03-04 17:40:00,39.0,23.7,29.62,WNW,292,0.0,13.0,54,0.00,,,0.00,Weather View 32 v70,2013-03-04 22:40:00,
2013-03-04 17:45:00,39.0,26.3,29.63,WNW,292,0.0,13.0,60,0.00,,,0.00,Weather View 32 v70,2013-03-04 22:45:00,
2013-03-04 17:50:00,39.0,25.0,29.63,NW,315,0.0,13.0,57,0.00,,,0.00,Weather View 32 v70,2013-03-04 22:50:00,
2013-03-04 17:55:00,39.0,24.2,29.63,West,270,0.0,13.0,55,0.00,,,0.00,Weather View 32 v70,2013-03-04 22:55:00,
2013-03-04 18:00:00,39.0,23.7,29.63,WNW,292,2.0,13.0,54,0.00,,,0.00,Weather View 32 v70,2013-03-04 23:00:00,
2013-03-04 18:05:00,39.0,23.7,29.64,West,270,3.0,13.0,54,0.00,,,0.00,Weather View 32 v70,2013-03-04 23:05:00,
2013-03-04 18:10:00,39.0,23.7,29.64,East,90,0.0,13.0,54,0.00,,,0.00,Weather View 32 v70,2013-03-04 23:10:00,
2013-03-04 18:15:00,39.0,24.2,29.64,West,270,2.0,10.0,55,0.00,,,0.00,Weather View 32 v70,2013-03-04 23:15:00,
2013-03-04 18:20:00,39.0,26.7,29.64,NNW,338,0.0,10.0,61,0.00,,,0.00,Weather View 32 v70,2013-03-04 23:20:00,
2013-03-04 18:25:00,39.0,26.7,29.65,NW,315,2.0,11.0,61,0.00,,,0.00,Weather View 32 v70,2013-03-04 23:25:00,
2013-03-04 18:30:00,39.0,27.1,29.65,WSW,248,0.0,11.0,62,0.00,,,0.00,Weather View 32 v70,2013-03-04 23:30:00,
2013-03-04 18:35:00,39.0,27.1,29.65,NE,45,2.0,11.0,62,0.00,,,0.00,Weather View 32 v70,2013-03-04 23:35:00,
2013-03-04 18:40:00,39.0,24.6,29.65,North,0,0.0,11.0,56,0.00,,,0.00,Weather View 32 v70,2013-03-04 23:40:00,
2013-03-04 18:45:00,38.0,27.3,29.65,WSW,248,0.0,12.0,65,0.00,,,0.00,Weather View 32 v70,2013-03-04 23:45:00,
2013-03-04 18:50:00,38.0,26.5,29.66,WNW,292,3.0,12.0,63,0.00,,,0.00,Weather View 32 v70,2013-03-04 23:50:00,
2013-03-04 18:55:00,38.0,27.6,29.66,SW,225,0.0,12.0,66,0.00,,,0.00,Weather View 32 v70,2013-03-04 23:55:00,
2013-03-04 19:00:00,38.0,28.0,29.66,West,270,0.0,12.0,67,0.00,,,0.00,Weather View 32 v70,2013-03-05 00:00:00,
2013-03-04 19:05:00,38.0,26.5,29.67,West,270,0.0,12.0,63,0.00,,,0.00,Weather View 32 v70,2013-03-05 00:05:00,
2013-03-04 19:10:00,38.0,27.3,29.67,WSW,248,0.0,12.0,65,0.00,,,0.00,Weather View 32 v70,2013-03-05 00:10:00,
2013-03-04 19:15:00,38.0,28.0,29.67,South,180,2.0,13.0,67,0.00,,,0.00,Weather View 32 v70,2013-03-05 00:15:00,
2013-03-04 19:20:00,38.0,28.4,29.67,West,270,0.0,13.0,68,0.00,,,0.00,Weather View 32 v70,2013-03-05 00:20:00,
2013-03-04 19:25:00,37.0,27.8,29.67,WNW,292,0.0,13.0,69,0.00,,,0.00,Weather View 32 v70,2013-03-05 00:25:00,
2013-03-04 19:30:00,37.0,27.1,29.67,NW,315,0.0,13.0,67,0.00,,,0.00,Weather View 32 v70,2013-03-05 00:30:00,
2013-03-04 19:35:00,37.0,27.1,29.68,WSW,248,0.0,13.0,67,0.00,,,0.00,Weather View 32 v70,2013-03-05 00:35:00,
2013-03-04 19:40:00,37.0,24.0,29.68,NNW,338,3.0,13.0,59,0.00,,,0.00,Weather View 32 v70,2013-03-05 00:40:00,
2013-03-04 19:45:00,37.0,24.0,29.68,North,0,0.0,13.0,59,0.00,,,0.00,Weather View 32 v70,2013-03-05 00:45:00,
2013-03-04 19:50:00,37.0,27.4,29.68,WNW,292,2.0,13.0,68,0.00,,,0.00,Weather View 32 v70,2013-03-05 00:50:00,
2013-03-04 19:55:00,37.0,25.9,29.68,WNW,292,0.0,13.0,64,0.00,,,0.00,Weather View 32 v70,2013-03-05 00:55:00,
2013-03-04 20:00:00,37.0,28.1,29.68,WNW,292,0.0,13.0,70,0.00,,,0.00,Weather View 32 v70,2013-03-05 01:00:00,
2013-03-04 20:05:00,36.0,27.5,29.68,ENE,68,0.0,13.0,71,0.00,,,0.00,Weather View 32 v70,2013-03-05 01:05:00,
2013-03-04 20:10:00,36.0,27.2,29.68,NNW,338,0.0,13.0,70,0.00,,,0.00,Weather View 32 v70,2013-03-05 01:10:00,
2013-03-04 20:15:00,36.0,27.2,29.68,SW,225,4.0,11.0,70,0.00,,,0.00,Weather View 32 v70,2013-03-05 01:15:00,
2013-03-04 20:20:00,36.0,26.8,29.68,SW,225,0.0,9.0,69,0.00,,,0.00,Weather View 32 v70,2013-03-05 01:20:00,
2013-03-04 20:25:00,36.0,27.2,29.69,NNE,22,0.0,9.0,70,0.00,,,0.00,Weather View 32 v70,2013-03-05 01:25:00,
2013-03-04 20:30:00,36.0,23.4,29.69,NNW,338,0.0,12.0,60,0.00,,,0.00,Weather View 32 v70,2013-03-05 01:30:00,
2013-03-04 20:35:00,36.0,26.5,29.69,WSW,248,0.0,12.0,68,0.00,,,0.00,Weather View 32 v70,2013-03-05 01:35:00,
2013-03-04 20:40:00,36.0,24.2,29.69,West,270,1.0,12.0,62,0.00,,,0.00,Weather View 32 v70,2013-03-05 01:40:00,
2013-03-04 20:45:00,36.0,23.8,29.69,West,270,3.0,13.0,61,0.00,,,0.00,Weather View 32 v70,2013-03-05 01:45:00,
2013-03-04 20:50:00,36.0,23.8,29.69,NE,45,0.0,13.0,61,0.00,,,0.00,Weather View 32 v70,2013-03-05 01:50:00,
2013-03-04 20:55:00,36.0,23.8,29.69,West,270,0.0,13.0,61,0.00,,,0.00,Weather View 32 v70,2013-03-05 01:55:00,
2013-03-04 21:00:00,36.0,23.8,29.69,WNW,292,2.0,13.0,61,0.00,,,0.00,Weather View 32 v70,2013-03-05 02:00:00,
2013-03-04 21:05:00,36.0,27.5,29.69,South,180,0.0,13.0,71,0.00,,,0.00,Weather View 32 v70,2013-03-05 02:05:00,
2013-03-04 21:10:00,36.0,23.8,29.69,WNW,292,0.0,13.0,61,0.00,,,0.00,Weather View 32 v70,2013-03-05 02:10:00,
2013-03-04 21:15:00,36.0,23.8,29.70,WNW,292,0.0,13.0,61,0.00,,,0.00,Weather View 32 v70,2013-03-05 02:15:00,
2013-03-04 21:20:00,36.0,23.8,29.70,West,270,0.0,13.0,61,0.00,,,0.00,Weather View 32 v70,2013-03-05 02:20:00,
2013-03-04 21:25:00,36.0,23.8,29.70,West,270,0.0,13.0,61,0.00,,,0.00,Weather View 32 v70,2013-03-05 02:25:00,
2013-03-04 21:30:00,36.0,23.8,29.70,North,0,0.0,13.0,61,0.00,,,0.00,Weather View 32 v70,2013-03-05 02:30:00,
2013-03-04 21:35:00,36.0,23.8,29.70,SE,135,0.0,13.0,61,0.00,,,0.00,Weather View 32 v70,2013-03-05 02:35:00,
2013-03-04 21:40:00,36.0,23.8,29.70,NW,315,2.0,13.0,61,0.00,,,0.00,Weather View 32 v70,2013-03-05 02:40:00,
2013-03-04 21:45:00,36.0,23.8,29.70,NNW,338,0.0,7.0,61,0.00,,,0.00,Weather View 32 v70,2013-03-05 02:45:00,
2013-03-04 21:50:00,36.0,23.8,29.70,NNW,338,2.0,9.0,61,0.00,,,0.00,Weather View 32 v70,2013-03-05 02:50:00,
2013-03-04 21:55:00,36.0,23.8,29.70,NW,315,8.0,9.0,61,0.00,,,0.00,Weather View 32 v70,2013-03-05 02:55:00,
2013-03-04 22:00:00,36.0,23.8,29.70,West,270,0.0,10.0,61,0.00,,,0.00,Weather View 32 v70,2013-03-05 03:00:00,
2013-03-04 22:05:00,36.0,23.8,29.71,NW,315,0.0,10.0,61,0.00,,,0.00,Weather View 32 v70,2013-03-05 03:05:00,
2013-03-04 22:10:00,36.0,23.8,29.71,North,0,5.0,10.0,61,0.00,,,0.00,Weather View 32 v70,2013-03-05 03:10:00,
2013-03-04 22:15:00,36.0,23.8,29.71,ENE,68,0.0,10.0,61,0.00,,,0.00,Weather View 32 v70,2013-03-05 03:15:00,
2013-03-04 22:20:00,36.0,23.8,29.71,WNW,292,0.0,10.0,61,0.00,,,0.00,Weather View 32 v70,2013-03-05 03:20:00,
2013-03-04 22:25:00,36.0,23.8,29.71,North,0,14.0,14.0,61,0.00,,,0.00,Weather View 32 v70,2013-03-05 03:25:00,
2013-03-04 22:30:00,36.0,23.8,29.71,WSW,248,0.0,15.0,61,0.00,,,0.00,Weather View 32 v70,2013-03-05 03:30:00,
2013-03-04 22:35:00,36.0,24.2,29.71,NNE,22,2.0,15.0,62,0.00,,,0.00,Weather View 32 v70,2013-03-05 03:35:00,
2013-03-04 22:40:00,36.0,24.2,29.71,WNW,292,0.0,15.0,62,0.00,,,0.00,Weather View 32 v70,2013-03-05 03:40:00,
2013-03-04 22:45:00,35.0,23.3,29.71,NNW,338,0.0,15.0,62,0.00,,,0.00,Weather View 32 v70,2013-03-05 03:45:00,
2013-03-04 22:50:00,35.0,23.7,29.72,NNW,338,0.0,15.0,63,0.00,,,0.00,Weather View 32 v70,2013-03-05 03:50:00,
2013-03-04 22:55:00,35.0,23.3,29.72,West,270,3.0,15.0,62,0.00,,,0.00,Weather View 32 v70,2013-03-05 03:55:00,
2013-03-04 23:00:00,35.0,23.3,29.71,NNW,338,7.0,15.0,62,0.00,,,0.00,Weather View 32 v70,2013-03-05 04:00:00,
2013-03-04 23:05:00,35.0,23.7,29.72,NW,315,3.0,16.0,63,0.00,,,0.00,Weather View 32 v70,2013-03-05 04:05:00,
2013-03-04 23:10:00,35.0,23.7,29.72,NNE,22,0.0,16.0,63,0.00,,,0.00,Weather View 32 v70,2013-03-05 04:10:00,
2013-03-04 23:15:00,35.0,23.7,29.72,SW,225,0.0,16.0,63,0.00,,,0.00,Weather View 32 v70,2013-03-05 04:15:00,
2013-03-04 23:20:00,35.0,23.7,29.72,SW,225,3.0,16.0,63,0.00,,,0.00,Weather View 32 v70,2013-03-05 04:20:00,
2013-03-04 23:25:00,35.0,23.7,29.72,SSW,202,0.0,16.0,63,0.00,,,0.00,Weather View 32 v70,2013-03-05 04:25:00,
2013-03-04 23:30:00,35.0,24.0,29.72,NNE,22,1.0,16.0,64,0.00,,,0.00,Weather View 32 v70,2013-03-05 04:30:00,
2013-03-04 23:35:00,35.0,24.0,29.73,NNW,338,1.0,16.0,64,0.00,,,0.00,Weather View 32 v70,2013-03-05 04:35:00,
2013-03-04 23:40:00,35.0,23.7,29.72,NW,315,5.0,16.0,63,0.00,,,0.00,Weather View 32 v70,2013-03-05 04:40:00,
2013-03-04 23:45:00,35.0,23.3,29.73,SSE,158,0.0,16.0,62,0.00,,,0.00,Weather View 32 v70,2013-03-05 04:45:00,
2013-03-04 23:50:00,35.0,23.7,29.73,West,270,0.0,16.0,63,0.00,,,0.00,Weather View 32 v70,2013-03-05 04:50:00,
2013-03-04 23:56:00,35.0,24.4,29.73,West,270,0.0,16.0,65,0.00,,,0.00,Weather View 32 v70,2013-03-05 04:56:00,